sensor_id;sensor_type;location;lat;lon;timestamp;P1;durP1;ratioP1;P2;durP2;ratioP2
71204;SDS011;58935;54.498;18.544;2024-01-30T00:02:07;55.90;;;27.90;;
71204;SDS011;58935;54.498;18.544;2024-01-30T00:04:32;53.40;;;24.80;;
71204;SDS011;58935;54.498;18.544;2024-01-30T00:06:57;55.00;;;25.80;;
71204;SDS011;58935;54.498;18.544;2024-01-30T00:09:23;58.70;;;27.40;;
71204;SDS011;58935;54.498;18.544;2024-01-30T00:11:48;57.00;;;26.00;;
71204;SDS011;58935;54.498;18.544;2024-01-30T00:14:14;55.30;;;25.20;;
71204;SDS011;58935;54.498;18.544;2024-01-30T00:16:41;56.50;;;25.10;;
71204;SDS011;58935;54.498;18.544;2024-01-30T00:19:07;48.70;;;24.90;;
71204;SDS011;58935;54.498;18.544;2024-01-30T00:21:33;48.30;;;24.70;;
71204;SDS011;58935;54.498;18.544;2024-01-30T00:23:59;51.20;;;25.10;;
71204;SDS011;58935;54.498;18.544;2024-01-30T00:26:27;42.70;;;22.80;;
71204;SDS011;58935;54.498;18.544;2024-01-30T00:28:52;47.70;;;24.30;;
71204;SDS011;58935;54.498;18.544;2024-01-30T00:31:17;41.00;;;24.20;;
71204;SDS011;58935;54.498;18.544;2024-01-30T00:33:43;47.60;;;24.20;;
71204;SDS011;58935;54.498;18.544;2024-01-30T00:36:09;42.00;;;23.70;;
71204;SDS011;58935;54.498;18.544;2024-01-30T00:38:36;50.50;;;26.20;;
71204;SDS011;58935;54.498;18.544;2024-01-30T00:41:02;48.90;;;24.70;;
71204;SDS011;58935;54.498;18.544;2024-01-30T00:43:28;54.10;;;26.60;;
71204;SDS011;58935;54.498;18.544;2024-01-30T00:45:54;57.90;;;27.20;;
71204;SDS011;58935;54.498;18.544;2024-01-30T00:48:20;51.00;;;27.50;;
71204;SDS011;58935;54.498;18.544;2024-01-30T00:50:46;56.20;;;28.20;;
71204;SDS011;58935;54.498;18.544;2024-01-30T00:53:12;57.20;;;28.20;;
71204;SDS011;58935;54.498;18.544;2024-01-30T00:55:38;51.90;;;26.60;;
71204;SDS011;58935;54.498;18.544;2024-01-30T00:58:04;54.00;;;26.20;;
71204;SDS011;58935;54.498;18.544;2024-01-30T01:00:30;49.10;;;26.50;;
71204;SDS011;58935;54.498;18.544;2024-01-30T01:02:58;52.20;;;26.70;;
71204;SDS011;58935;54.498;18.544;2024-01-30T01:05:24;55.60;;;27.00;;
71204;SDS011;58935;54.498;18.544;2024-01-30T01:07:55;48.70;;;27.40;;
71204;SDS011;58935;54.498;18.544;2024-01-30T01:10:23;52.20;;;27.20;;
71204;SDS011;58935;54.498;18.544;2024-01-30T01:12:48;60.20;;;28.40;;
71204;SDS011;58935;54.498;18.544;2024-01-30T01:15:16;57.60;;;26.20;;
71204;SDS011;58935;54.498;18.544;2024-01-30T01:17:42;50.50;;;25.60;;
71204;SDS011;58935;54.498;18.544;2024-01-30T01:20:09;49.40;;;25.30;;
71204;SDS011;58935;54.498;18.544;2024-01-30T01:22:36;50.30;;;25.70;;
71204;SDS011;58935;54.498;18.544;2024-01-30T01:25:06;50.80;;;25.20;;
71204;SDS011;58935;54.498;18.544;2024-01-30T01:27:33;51.30;;;25.90;;
71204;SDS011;58935;54.498;18.544;2024-01-30T01:30:00;47.50;;;25.10;;
71204;SDS011;58935;54.498;18.544;2024-01-30T01:32:31;49.00;;;25.90;;
71204;SDS011;58935;54.498;18.544;2024-01-30T01:34:56;50.90;;;25.70;;
71204;SDS011;58935;54.498;18.544;2024-01-30T01:37:22;49.50;;;25.50;;
71204;SDS011;58935;54.498;18.544;2024-01-30T01:39:48;48.90;;;24.70;;
71204;SDS011;58935;54.498;18.544;2024-01-30T01:42:15;51.80;;;27.10;;
71204;SDS011;58935;54.498;18.544;2024-01-30T01:44:43;52.70;;;26.60;;
71204;SDS011;58935;54.498;18.544;2024-01-30T01:47:08;49.20;;;28.10;;
71204;SDS011;58935;54.498;18.544;2024-01-30T01:49:34;49.80;;;25.10;;
71204;SDS011;58935;54.498;18.544;2024-01-30T01:52:00;51.30;;;25.30;;
71204;SDS011;58935;54.498;18.544;2024-01-30T01:54:26;46.50;;;24.40;;
71204;SDS011;58935;54.498;18.544;2024-01-30T01:56:56;47.60;;;25.50;;
71204;SDS011;58935;54.498;18.544;2024-01-30T01:59:23;50.00;;;25.90;;
71204;SDS011;58935;54.498;18.544;2024-01-30T02:01:52;49.00;;;27.00;;
71204;SDS011;58935;54.498;18.544;2024-01-30T02:04:20;52.30;;;26.30;;
71204;SDS011;58935;54.498;18.544;2024-01-30T02:06:46;51.70;;;26.80;;
71204;SDS011;58935;54.498;18.544;2024-01-30T02:09:11;54.10;;;27.50;;
71204;SDS011;58935;54.498;18.544;2024-01-30T02:11:37;48.50;;;26.00;;
71204;SDS011;58935;54.498;18.544;2024-01-30T02:14:03;56.30;;;27.70;;
71204;SDS011;58935;54.498;18.544;2024-01-30T02:16:31;48.20;;;25.20;;
71204;SDS011;58935;54.498;18.544;2024-01-30T02:18:56;53.80;;;25.70;;
71204;SDS011;58935;54.498;18.544;2024-01-30T02:21:25;54.60;;;27.10;;
71204;SDS011;58935;54.498;18.544;2024-01-30T02:23:56;52.40;;;25.50;;
71204;SDS011;58935;54.498;18.544;2024-01-30T02:26:24;49.40;;;26.80;;
71204;SDS011;58935;54.498;18.544;2024-01-30T02:28:52;57.40;;;26.40;;
71204;SDS011;58935;54.498;18.544;2024-01-30T02:31:17;48.20;;;24.40;;
71204;SDS011;58935;54.498;18.544;2024-01-30T02:33:43;53.00;;;25.50;;
71204;SDS011;58935;54.498;18.544;2024-01-30T02:36:08;44.90;;;25.60;;
71204;SDS011;58935;54.498;18.544;2024-01-30T02:38:33;50.80;;;25.70;;
71204;SDS011;58935;54.498;18.544;2024-01-30T02:41:01;49.00;;;25.50;;
71204;SDS011;58935;54.498;18.544;2024-01-30T02:43:27;53.40;;;27.00;;
71204;SDS011;58935;54.498;18.544;2024-01-30T02:45:52;47.60;;;25.60;;
71204;SDS011;58935;54.498;18.544;2024-01-30T02:48:18;50.00;;;25.20;;
71204;SDS011;58935;54.498;18.544;2024-01-30T02:50:43;49.50;;;25.20;;
71204;SDS011;58935;54.498;18.544;2024-01-30T02:53:09;49.50;;;25.60;;
71204;SDS011;58935;54.498;18.544;2024-01-30T02:55:34;49.70;;;25.50;;
71204;SDS011;58935;54.498;18.544;2024-01-30T02:58:00;51.90;;;27.50;;
71204;SDS011;58935;54.498;18.544;2024-01-30T03:00:25;51.50;;;26.80;;
71204;SDS011;58935;54.498;18.544;2024-01-30T03:02:51;49.80;;;25.40;;
71204;SDS011;58935;54.498;18.544;2024-01-30T03:05:16;47.60;;;25.50;;
71204;SDS011;58935;54.498;18.544;2024-01-30T03:07:42;53.80;;;26.40;;
71204;SDS011;58935;54.498;18.544;2024-01-30T03:10:07;49.70;;;25.90;;
71204;SDS011;58935;54.498;18.544;2024-01-30T03:12:33;58.10;;;27.60;;
71204;SDS011;58935;54.498;18.544;2024-01-30T03:14:58;48.40;;;25.70;;
71204;SDS011;58935;54.498;18.544;2024-01-30T03:17:24;43.40;;;24.80;;
71204;SDS011;58935;54.498;18.544;2024-01-30T03:19:50;50.60;;;25.40;;
71204;SDS011;58935;54.498;18.544;2024-01-30T03:22:16;52.20;;;26.20;;
71204;SDS011;58935;54.498;18.544;2024-01-30T03:24:42;48.00;;;25.90;;
71204;SDS011;58935;54.498;18.544;2024-01-30T03:27:08;47.10;;;25.80;;
71204;SDS011;58935;54.498;18.544;2024-01-30T03:29:34;52.20;;;25.20;;
71204;SDS011;58935;54.498;18.544;2024-01-30T03:32:00;43.90;;;25.20;;
71204;SDS011;58935;54.498;18.544;2024-01-30T03:34:26;52.60;;;25.00;;
71204;SDS011;58935;54.498;18.544;2024-01-30T03:36:51;45.30;;;24.60;;
71204;SDS011;58935;54.498;18.544;2024-01-30T03:39:16;47.50;;;26.20;;
71204;SDS011;58935;54.498;18.544;2024-01-30T03:41:42;47.40;;;25.40;;
71204;SDS011;58935;54.498;18.544;2024-01-30T03:44:10;48.10;;;25.50;;
71204;SDS011;58935;54.498;18.544;2024-01-30T03:46:36;51.90;;;26.50;;
71204;SDS011;58935;54.498;18.544;2024-01-30T03:49:01;48.40;;;26.50;;
71204;SDS011;58935;54.498;18.544;2024-01-30T03:51:26;55.30;;;26.80;;
71204;SDS011;58935;54.498;18.544;2024-01-30T03:53:52;47.00;;;26.50;;
71204;SDS011;58935;54.498;18.544;2024-01-30T03:56:17;57.30;;;28.20;;
71204;SDS011;58935;54.498;18.544;2024-01-30T03:58:43;50.70;;;27.90;;
71204;SDS011;58935;54.498;18.544;2024-01-30T04:01:13;64.50;;;30.80;;
71204;SDS011;58935;54.498;18.544;2024-01-30T04:03:40;52.30;;;27.70;;
71204;SDS011;58935;54.498;18.544;2024-01-30T04:06:06;52.60;;;28.50;;
71204;SDS011;58935;54.498;18.544;2024-01-30T04:08:33;56.00;;;27.90;;
71204;SDS011;58935;54.498;18.544;2024-01-30T04:10:58;52.20;;;28.20;;
71204;SDS011;58935;54.498;18.544;2024-01-30T04:13:23;58.90;;;28.40;;
71204;SDS011;58935;54.498;18.544;2024-01-30T04:15:49;53.70;;;29.20;;
71204;SDS011;58935;54.498;18.544;2024-01-30T04:18:14;54.30;;;28.60;;
71204;SDS011;58935;54.498;18.544;2024-01-30T04:20:40;53.00;;;29.50;;
71204;SDS011;58935;54.498;18.544;2024-01-30T04:23:05;51.60;;;29.80;;
71204;SDS011;58935;54.498;18.544;2024-01-30T04:25:31;59.60;;;32.40;;
71204;SDS011;58935;54.498;18.544;2024-01-30T04:27:59;68.10;;;36.60;;
71204;SDS011;58935;54.498;18.544;2024-01-30T04:30:24;66.40;;;36.70;;
71204;SDS011;58935;54.498;18.544;2024-01-30T04:32:52;56.60;;;34.50;;
71204;SDS011;58935;54.498;18.544;2024-01-30T04:35:17;62.60;;;32.60;;
71204;SDS011;58935;54.498;18.544;2024-01-30T04:37:42;61.30;;;33.10;;
71204;SDS011;58935;54.498;18.544;2024-01-30T04:40:08;54.50;;;29.40;;
71204;SDS011;58935;54.498;18.544;2024-01-30T04:42:34;52.30;;;27.30;;
71204;SDS011;58935;54.498;18.544;2024-01-30T04:45:00;47.10;;;26.00;;
71204;SDS011;58935;54.498;18.544;2024-01-30T04:47:25;47.90;;;27.10;;
71204;SDS011;58935;54.498;18.544;2024-01-30T04:49:53;51.50;;;26.40;;
71204;SDS011;58935;54.498;18.544;2024-01-30T04:52:18;46.30;;;26.30;;
71204;SDS011;58935;54.498;18.544;2024-01-30T04:54:44;50.10;;;26.20;;
71204;SDS011;58935;54.498;18.544;2024-01-30T04:57:12;43.50;;;24.90;;
71204;SDS011;58935;54.498;18.544;2024-01-30T04:59:37;48.00;;;25.40;;
71204;SDS011;58935;54.498;18.544;2024-01-30T05:02:03;50.00;;;25.20;;
71204;SDS011;58935;54.498;18.544;2024-01-30T05:04:29;50.00;;;24.70;;
71204;SDS011;58935;54.498;18.544;2024-01-30T05:06:54;41.90;;;24.40;;
71204;SDS011;58935;54.498;18.544;2024-01-30T05:09:22;58.90;;;26.40;;
71204;SDS011;58935;54.498;18.544;2024-01-30T05:11:47;57.20;;;28.40;;
71204;SDS011;58935;54.498;18.544;2024-01-30T05:14:13;55.90;;;28.50;;
71204;SDS011;58935;54.498;18.544;2024-01-30T05:16:40;47.50;;;26.80;;
71204;SDS011;58935;54.498;18.544;2024-01-30T05:19:06;53.00;;;27.20;;
71204;SDS011;58935;54.498;18.544;2024-01-30T05:21:32;48.90;;;27.00;;
71204;SDS011;58935;54.498;18.544;2024-01-30T05:23:57;50.20;;;25.60;;
71204;SDS011;58935;54.498;18.544;2024-01-30T05:26:23;48.00;;;25.50;;
71204;SDS011;58935;54.498;18.544;2024-01-30T05:28:48;51.10;;;25.70;;
71204;SDS011;58935;54.498;18.544;2024-01-30T05:31:14;42.20;;;24.20;;
71204;SDS011;58935;54.498;18.544;2024-01-30T05:33:40;46.20;;;24.70;;
71204;SDS011;58935;54.498;18.544;2024-01-30T05:36:06;43.00;;;24.20;;
71204;SDS011;58935;54.498;18.544;2024-01-30T05:38:32;49.30;;;25.20;;
71204;SDS011;58935;54.498;18.544;2024-01-30T05:40:57;50.00;;;24.80;;
71204;SDS011;58935;54.498;18.544;2024-01-30T05:43:24;45.90;;;26.10;;
71204;SDS011;58935;54.498;18.544;2024-01-30T05:45:52;51.40;;;26.20;;
71204;SDS011;58935;54.498;18.544;2024-01-30T05:48:20;53.20;;;25.40;;
71204;SDS011;58935;54.498;18.544;2024-01-30T05:50:48;43.30;;;25.50;;
71204;SDS011;58935;54.498;18.544;2024-01-30T05:53:13;48.60;;;25.30;;
71204;SDS011;58935;54.498;18.544;2024-01-30T05:55:39;44.20;;;24.60;;
71204;SDS011;58935;54.498;18.544;2024-01-30T05:58:04;47.70;;;24.70;;
71204;SDS011;58935;54.498;18.544;2024-01-30T06:00:30;48.80;;;24.80;;
71204;SDS011;58935;54.498;18.544;2024-01-30T06:02:55;50.50;;;25.80;;
71204;SDS011;58935;54.498;18.544;2024-01-30T06:05:23;45.70;;;24.10;;
71204;SDS011;58935;54.498;18.544;2024-01-30T06:07:48;50.30;;;25.20;;
71204;SDS011;58935;54.498;18.544;2024-01-30T06:10:13;46.00;;;25.60;;
71204;SDS011;58935;54.498;18.544;2024-01-30T06:12:41;52.40;;;26.40;;
71204;SDS011;58935;54.498;18.544;2024-01-30T06:15:07;48.10;;;25.60;;
71204;SDS011;58935;54.498;18.544;2024-01-30T06:17:33;47.00;;;25.60;;
71204;SDS011;58935;54.498;18.544;2024-01-30T06:19:58;50.00;;;25.80;;
71204;SDS011;58935;54.498;18.544;2024-01-30T06:22:24;54.80;;;26.60;;
71204;SDS011;58935;54.498;18.544;2024-01-30T06:24:50;49.50;;;26.90;;
71204;SDS011;58935;54.498;18.544;2024-01-30T06:27:15;56.50;;;27.20;;
71204;SDS011;58935;54.498;18.544;2024-01-30T06:29:43;50.10;;;25.50;;
71204;SDS011;58935;54.498;18.544;2024-01-30T06:32:09;49.90;;;26.90;;
71204;SDS011;58935;54.498;18.544;2024-01-30T06:34:35;54.00;;;28.30;;
71204;SDS011;58935;54.498;18.544;2024-01-30T06:37:00;53.10;;;25.80;;
71204;SDS011;58935;54.498;18.544;2024-01-30T06:39:26;49.60;;;26.50;;
71204;SDS011;58935;54.498;18.544;2024-01-30T06:41:52;64.40;;;25.60;;
71204;SDS011;58935;54.498;18.544;2024-01-30T06:44:18;44.10;;;25.20;;
71204;SDS011;58935;54.498;18.544;2024-01-30T06:46:43;50.00;;;26.70;;
71204;SDS011;58935;54.498;18.544;2024-01-30T06:49:11;45.80;;;26.10;;
71204;SDS011;58935;54.498;18.544;2024-01-30T06:51:37;56.10;;;27.20;;
71204;SDS011;58935;54.498;18.544;2024-01-30T06:54:03;48.00;;;24.30;;
71204;SDS011;58935;54.498;18.544;2024-01-30T06:56:29;50.00;;;25.00;;
71204;SDS011;58935;54.498;18.544;2024-01-30T06:58:55;46.40;;;24.90;;
71204;SDS011;58935;54.498;18.544;2024-01-30T07:01:20;43.80;;;24.80;;
71204;SDS011;58935;54.498;18.544;2024-01-30T07:03:46;43.90;;;24.20;;
71204;SDS011;58935;54.498;18.544;2024-01-30T07:06:12;44.30;;;25.00;;
71204;SDS011;58935;54.498;18.544;2024-01-30T07:08:37;46.30;;;25.60;;
71204;SDS011;58935;54.498;18.544;2024-01-30T07:11:05;43.40;;;24.80;;
71204;SDS011;58935;54.498;18.544;2024-01-30T07:13:32;43.40;;;23.50;;
71204;SDS011;58935;54.498;18.544;2024-01-30T07:15:58;46.30;;;23.40;;
71204;SDS011;58935;54.498;18.544;2024-01-30T07:18:23;51.40;;;26.60;;
71204;SDS011;58935;54.498;18.544;2024-01-30T07:20:49;50.10;;;25.40;;
71204;SDS011;58935;54.498;18.544;2024-01-30T07:23:15;41.80;;;24.00;;
71204;SDS011;58935;54.498;18.544;2024-01-30T07:25:44;47.30;;;24.00;;
71204;SDS011;58935;54.498;18.544;2024-01-30T07:28:10;46.90;;;23.90;;
71204;SDS011;58935;54.498;18.544;2024-01-30T07:30:37;43.50;;;23.30;;
71204;SDS011;58935;54.498;18.544;2024-01-30T07:33:04;40.70;;;21.60;;
71204;SDS011;58935;54.498;18.544;2024-01-30T07:35:30;38.20;;;21.70;;
71204;SDS011;58935;54.498;18.544;2024-01-30T07:37:55;45.90;;;21.90;;
71204;SDS011;58935;54.498;18.544;2024-01-30T07:40:22;42.10;;;22.00;;
71204;SDS011;58935;54.498;18.544;2024-01-30T07:42:53;38.40;;;21.60;;
71204;SDS011;58935;54.498;18.544;2024-01-30T07:45:19;33.40;;;20.10;;
71204;SDS011;58935;54.498;18.544;2024-01-30T07:47:49;48.50;;;23.50;;
71204;SDS011;58935;54.498;18.544;2024-01-30T07:50:15;38.00;;;21.80;;
71204;SDS011;58935;54.498;18.544;2024-01-30T07:52:42;38.30;;;20.40;;
71204;SDS011;58935;54.498;18.544;2024-01-30T07:55:08;33.90;;;18.90;;
71204;SDS011;58935;54.498;18.544;2024-01-30T07:57:34;39.50;;;20.70;;
71204;SDS011;58935;54.498;18.544;2024-01-30T08:00:00;38.20;;;21.00;;
71204;SDS011;58935;54.498;18.544;2024-01-30T08:02:27;39.20;;;20.90;;
71204;SDS011;58935;54.498;18.544;2024-01-30T08:04:53;35.10;;;19.50;;
71204;SDS011;58935;54.498;18.544;2024-01-30T08:07:18;39.00;;;20.30;;
71204;SDS011;58935;54.498;18.544;2024-01-30T08:09:44;40.50;;;18.90;;
71204;SDS011;58935;54.498;18.544;2024-01-30T08:12:10;40.30;;;19.40;;
71204;SDS011;58935;54.498;18.544;2024-01-30T08:14:35;42.60;;;20.80;;
71204;SDS011;58935;54.498;18.544;2024-01-30T08:17:01;34.50;;;19.20;;
71204;SDS011;58935;54.498;18.544;2024-01-30T08:19:26;35.60;;;20.70;;
71204;SDS011;58935;54.498;18.544;2024-01-30T08:21:53;36.80;;;21.10;;
71204;SDS011;58935;54.498;18.544;2024-01-30T08:24:19;36.70;;;19.70;;
71204;SDS011;58935;54.498;18.544;2024-01-30T08:26:46;39.90;;;20.00;;
71204;SDS011;58935;54.498;18.544;2024-01-30T08:29:12;39.10;;;20.60;;
71204;SDS011;58935;54.498;18.544;2024-01-30T08:31:37;39.10;;;19.70;;
71204;SDS011;58935;54.498;18.544;2024-01-30T08:34:02;35.50;;;19.10;;
71204;SDS011;58935;54.498;18.544;2024-01-30T08:36:28;38.70;;;20.50;;
71204;SDS011;58935;54.498;18.544;2024-01-30T08:38:53;38.20;;;21.40;;
71204;SDS011;58935;54.498;18.544;2024-01-30T08:41:19;34.50;;;20.30;;
71204;SDS011;58935;54.498;18.544;2024-01-30T08:43:44;42.60;;;22.10;;
71204;SDS011;58935;54.498;18.544;2024-01-30T08:46:12;41.40;;;22.60;;
71204;SDS011;58935;54.498;18.544;2024-01-30T08:48:38;43.10;;;22.60;;
71204;SDS011;58935;54.498;18.544;2024-01-30T08:51:03;42.10;;;23.50;;
71204;SDS011;58935;54.498;18.544;2024-01-30T08:53:33;40.50;;;22.20;;
71204;SDS011;58935;54.498;18.544;2024-01-30T08:56:02;46.00;;;24.00;;
71204;SDS011;58935;54.498;18.544;2024-01-30T08:58:28;61.40;;;24.30;;
71204;SDS011;58935;54.498;18.544;2024-01-30T09:00:53;42.00;;;23.00;;
71204;SDS011;58935;54.498;18.544;2024-01-30T09:03:18;40.70;;;24.00;;
71204;SDS011;58935;54.498;18.544;2024-01-30T09:05:46;47.40;;;23.20;;
71204;SDS011;58935;54.498;18.544;2024-01-30T09:08:12;44.40;;;25.00;;
71204;SDS011;58935;54.498;18.544;2024-01-30T09:10:37;49.30;;;24.90;;
71204;SDS011;58935;54.498;18.544;2024-01-30T09:13:03;46.80;;;25.70;;
71204;SDS011;58935;54.498;18.544;2024-01-30T09:15:28;49.90;;;25.60;;
71204;SDS011;58935;54.498;18.544;2024-01-30T09:17:54;49.50;;;25.40;;
71204;SDS011;58935;54.498;18.544;2024-01-30T09:20:19;50.70;;;25.10;;
71204;SDS011;58935;54.498;18.544;2024-01-30T09:22:47;49.80;;;24.80;;
71204;SDS011;58935;54.498;18.544;2024-01-30T09:25:13;49.50;;;23.70;;
71204;SDS011;58935;54.498;18.544;2024-01-30T09:27:38;50.50;;;25.40;;
71204;SDS011;58935;54.498;18.544;2024-01-30T09:30:04;45.20;;;23.30;;
71204;SDS011;58935;54.498;18.544;2024-01-30T09:32:30;43.20;;;24.60;;
71204;SDS011;58935;54.498;18.544;2024-01-30T09:34:56;44.60;;;23.30;;
71204;SDS011;58935;54.498;18.544;2024-01-30T09:37:23;42.90;;;24.20;;
71204;SDS011;58935;54.498;18.544;2024-01-30T09:39:49;51.20;;;25.10;;
71204;SDS011;58935;54.498;18.544;2024-01-30T09:42:18;45.10;;;24.00;;
71204;SDS011;58935;54.498;18.544;2024-01-30T09:44:53;47.90;;;23.60;;
71204;SDS011;58935;54.498;18.544;2024-01-30T09:47:19;39.90;;;22.10;;
71204;SDS011;58935;54.498;18.544;2024-01-30T09:49:44;44.70;;;22.30;;
71204;SDS011;58935;54.498;18.544;2024-01-30T09:52:11;40.80;;;23.00;;
71204;SDS011;58935;54.498;18.544;2024-01-30T09:54:38;40.90;;;23.60;;
71204;SDS011;58935;54.498;18.544;2024-01-30T09:57:04;36.80;;;21.60;;
71204;SDS011;58935;54.498;18.544;2024-01-30T09:59:31;45.80;;;22.40;;
71204;SDS011;58935;54.498;18.544;2024-01-30T10:01:57;39.10;;;21.10;;
71204;SDS011;58935;54.498;18.544;2024-01-30T10:04:22;39.50;;;21.40;;
71204;SDS011;58935;54.498;18.544;2024-01-30T10:06:48;40.60;;;21.70;;
71204;SDS011;58935;54.498;18.544;2024-01-30T10:09:16;40.40;;;20.60;;
71204;SDS011;58935;54.498;18.544;2024-01-30T10:11:41;40.80;;;19.70;;
71204;SDS011;58935;54.498;18.544;2024-01-30T10:14:09;38.90;;;20.60;;
71204;SDS011;58935;54.498;18.544;2024-01-30T10:16:35;38.40;;;21.10;;
71204;SDS011;58935;54.498;18.544;2024-01-30T10:19:00;39.00;;;21.10;;
71204;SDS011;58935;54.498;18.544;2024-01-30T10:21:26;44.40;;;20.30;;
71204;SDS011;58935;54.498;18.544;2024-01-30T10:23:51;36.80;;;19.00;;
71204;SDS011;58935;54.498;18.544;2024-01-30T10:26:17;39.40;;;19.20;;
71204;SDS011;58935;54.498;18.544;2024-01-30T10:28:43;36.70;;;19.70;;
71204;SDS011;58935;54.498;18.544;2024-01-30T10:31:10;39.50;;;18.70;;
71204;SDS011;58935;54.498;18.544;2024-01-30T10:33:36;33.10;;;19.00;;
71204;SDS011;58935;54.498;18.544;2024-01-30T10:36:04;32.10;;;18.60;;
71204;SDS011;58935;54.498;18.544;2024-01-30T10:38:32;30.50;;;17.70;;
71204;SDS011;58935;54.498;18.544;2024-01-30T10:41:00;33.70;;;18.40;;
71204;SDS011;58935;54.498;18.544;2024-01-30T10:43:31;32.20;;;17.80;;
71204;SDS011;58935;54.498;18.544;2024-01-30T10:48:36;32.90;;;17.80;;
71204;SDS011;58935;54.498;18.544;2024-01-30T10:51:10;35.30;;;17.40;;
71204;SDS011;58935;54.498;18.544;2024-01-30T10:53:38;30.80;;;17.80;;
71204;SDS011;58935;54.498;18.544;2024-01-30T10:56:05;32.70;;;17.10;;
71204;SDS011;58935;54.498;18.544;2024-01-30T10:58:33;36.90;;;17.90;;
71204;SDS011;58935;54.498;18.544;2024-01-30T11:00:59;38.20;;;17.70;;
71204;SDS011;58935;54.498;18.544;2024-01-30T11:03:24;30.10;;;16.60;;
71204;SDS011;58935;54.498;18.544;2024-01-30T11:05:50;28.50;;;16.00;;
71204;SDS011;58935;54.498;18.544;2024-01-30T11:08:22;42.70;;;17.70;;
71204;SDS011;58935;54.498;18.544;2024-01-30T11:10:49;32.20;;;16.40;;
71204;SDS011;58935;54.498;18.544;2024-01-30T11:13:15;31.00;;;16.80;;
71204;SDS011;58935;54.498;18.544;2024-01-30T11:15:41;35.40;;;17.10;;
71204;SDS011;58935;54.498;18.544;2024-01-30T11:18:06;32.00;;;17.40;;
71204;SDS011;58935;54.498;18.544;2024-01-30T11:20:32;35.40;;;18.90;;
71204;SDS011;58935;54.498;18.544;2024-01-30T11:23:01;32.30;;;17.70;;
71204;SDS011;58935;54.498;18.544;2024-01-30T11:25:31;34.30;;;17.90;;
71204;SDS011;58935;54.498;18.544;2024-01-30T11:27:57;29.50;;;18.00;;
71204;SDS011;58935;54.498;18.544;2024-01-30T11:30:28;36.10;;;19.30;;
71204;SDS011;58935;54.498;18.544;2024-01-30T11:32:59;39.20;;;19.20;;
71204;SDS011;58935;54.498;18.544;2024-01-30T11:35:36;37.80;;;19.80;;
71204;SDS011;58935;54.498;18.544;2024-01-30T11:38:06;38.00;;;18.30;;
71204;SDS011;58935;54.498;18.544;2024-01-30T11:40:34;40.60;;;19.90;;
71204;SDS011;58935;54.498;18.544;2024-01-30T11:43:02;41.00;;;18.30;;
71204;SDS011;58935;54.498;18.544;2024-01-30T11:45:30;36.20;;;18.80;;
71204;SDS011;58935;54.498;18.544;2024-01-30T11:47:57;43.30;;;18.40;;
71204;SDS011;58935;54.498;18.544;2024-01-30T11:50:25;36.10;;;18.40;;
71204;SDS011;58935;54.498;18.544;2024-01-30T11:52:51;54.60;;;20.50;;
71204;SDS011;58935;54.498;18.544;2024-01-30T11:55:17;32.50;;;19.10;;
71204;SDS011;58935;54.498;18.544;2024-01-30T11:57:45;37.00;;;19.20;;
71204;SDS011;58935;54.498;18.544;2024-01-30T12:00:15;44.30;;;23.40;;
71204;SDS011;58935;54.498;18.544;2024-01-30T12:02:42;45.10;;;25.00;;
71204;SDS011;58935;54.498;18.544;2024-01-30T12:05:08;42.50;;;24.70;;
71204;SDS011;58935;54.498;18.544;2024-01-30T12:07:35;48.60;;;27.40;;
71204;SDS011;58935;54.498;18.544;2024-01-30T12:10:01;48.50;;;26.50;;
71204;SDS011;58935;54.498;18.544;2024-01-30T12:12:28;54.00;;;27.20;;
71204;SDS011;58935;54.498;18.544;2024-01-30T12:14:55;50.70;;;26.90;;
71204;SDS011;58935;54.498;18.544;2024-01-30T12:17:26;44.00;;;24.00;;
71204;SDS011;58935;54.498;18.544;2024-01-30T12:22:27;44.30;;;23.70;;
71204;SDS011;58935;54.498;18.544;2024-01-30T12:24:53;47.80;;;25.70;;
71204;SDS011;58935;54.498;18.544;2024-01-30T12:27:18;43.70;;;24.00;;
71204;SDS011;58935;54.498;18.544;2024-01-30T12:29:46;49.50;;;24.20;;
71204;SDS011;58935;54.498;18.544;2024-01-30T12:32:15;44.70;;;23.50;;
71204;SDS011;58935;54.498;18.544;2024-01-30T12:34:41;46.40;;;23.30;;
71204;SDS011;58935;54.498;18.544;2024-01-30T12:37:07;38.20;;;23.10;;
71204;SDS011;58935;54.498;18.544;2024-01-30T12:39:35;40.50;;;23.80;;
71204;SDS011;58935;54.498;18.544;2024-01-30T12:42:01;45.60;;;22.80;;
71204;SDS011;58935;54.498;18.544;2024-01-30T12:44:26;44.10;;;22.40;;
71204;SDS011;58935;54.498;18.544;2024-01-30T12:46:52;46.80;;;24.20;;
71204;SDS011;58935;54.498;18.544;2024-01-30T12:49:20;44.50;;;24.10;;
71204;SDS011;58935;54.498;18.544;2024-01-30T12:51:46;50.10;;;25.70;;
71204;SDS011;58935;54.498;18.544;2024-01-30T12:54:12;50.20;;;25.60;;
71204;SDS011;58935;54.498;18.544;2024-01-30T12:56:38;53.40;;;25.70;;
71204;SDS011;58935;54.498;18.544;2024-01-30T12:59:03;50.30;;;25.40;;
71204;SDS011;58935;54.498;18.544;2024-01-30T13:01:28;51.30;;;24.40;;
71204;SDS011;58935;54.498;18.544;2024-01-30T13:03:54;46.30;;;24.40;;
71204;SDS011;58935;54.498;18.544;2024-01-30T13:06:23;44.80;;;23.70;;
71204;SDS011;58935;54.498;18.544;2024-01-30T13:08:48;43.20;;;25.00;;
71204;SDS011;58935;54.498;18.544;2024-01-30T13:11:14;45.00;;;24.50;;
71204;SDS011;58935;54.498;18.544;2024-01-30T13:13:39;47.50;;;24.20;;
71204;SDS011;58935;54.498;18.544;2024-01-30T13:16:05;40.60;;;23.10;;
71204;SDS011;58935;54.498;18.544;2024-01-30T13:18:31;50.40;;;24.10;;
71204;SDS011;58935;54.498;18.544;2024-01-30T13:20:56;43.10;;;23.50;;
71204;SDS011;58935;54.498;18.544;2024-01-30T13:23:22;43.00;;;23.90;;
71204;SDS011;58935;54.498;18.544;2024-01-30T13:25:50;48.10;;;24.30;;
71204;SDS011;58935;54.498;18.544;2024-01-30T13:28:15;51.20;;;25.00;;
71204;SDS011;58935;54.498;18.544;2024-01-30T13:30:40;46.50;;;24.10;;
71204;SDS011;58935;54.498;18.544;2024-01-30T13:33:06;42.00;;;24.30;;
71204;SDS011;58935;54.498;18.544;2024-01-30T13:35:31;46.80;;;24.30;;
71204;SDS011;58935;54.498;18.544;2024-01-30T13:37:57;50.20;;;25.80;;
71204;SDS011;58935;54.498;18.544;2024-01-30T13:40:24;42.00;;;24.60;;
71204;SDS011;58935;54.498;18.544;2024-01-30T13:42:49;52.80;;;25.20;;
71204;SDS011;58935;54.498;18.544;2024-01-30T13:45:15;48.90;;;25.40;;
71204;SDS011;58935;54.498;18.544;2024-01-30T13:47:40;66.70;;;26.00;;
71204;SDS011;58935;54.498;18.544;2024-01-30T13:50:06;46.40;;;24.30;;
71204;SDS011;58935;54.498;18.544;2024-01-30T13:52:31;49.60;;;25.70;;
71204;SDS011;58935;54.498;18.544;2024-01-30T13:54:56;43.20;;;23.80;;
71204;SDS011;58935;54.498;18.544;2024-01-30T13:57:24;43.20;;;22.90;;
71204;SDS011;58935;54.498;18.544;2024-01-30T13:59:49;46.20;;;23.80;;
71204;SDS011;58935;54.498;18.544;2024-01-30T14:02:15;52.20;;;24.60;;
71204;SDS011;58935;54.498;18.544;2024-01-30T14:04:40;46.90;;;25.10;;
71204;SDS011;58935;54.498;18.544;2024-01-30T14:07:08;50.90;;;25.80;;
71204;SDS011;58935;54.498;18.544;2024-01-30T14:09:35;50.10;;;26.80;;